CST,Max TemperatureF,Mean TemperatureF,Min TemperatureF,Max Dew PointF,MeanDew PointF,Min DewpointF,Max Humidity, Mean Humidity, Min Humidity, Max Sea Level PressureIn, Mean Sea Level PressureIn, Min Sea Level PressureIn, Max VisibilityMiles, Mean VisibilityMiles, Min VisibilityMiles, Max Wind SpeedMPH, Mean Wind SpeedMPH, Max Gust SpeedMPH,PrecipitationIn, CloudCover, Events, WindDirDegrees
2013-12-1,61,52,43,39,34,28,76,57,42,30.30,30.18,30.03,10,10,10,9,3,,0.00,2,,107
2013-12-2,63,54,45,46,43,37,93,71,52,30.02,29.90,29.82,10,10,5,8,3,,0.04,5,,122
2013-12-3,61,57,52,57,54,45,94,90,76,29.91,29.86,29.83,10,7,2,12,6,18,0.64,7,,156
2013-12-4,70,66,61,63,61,57,94,89,73,30.05,29.98,29.91,10,7,0,13,9,17,0.01,7,,177
2013-12-5,77,71,64,68,64,63,100,88,69,30.11,30.05,30.00,10,7,0,16,9,20,0.17,7,Thunderstorm,184
2013-12-6,77,68,59,64,62,55,94,79,65,30.12,30.05,30.02,10,10,6,20,13,28,0.21,6,,197
2013-12-7,57,51,45,55,42,37,94,79,71,30.27,30.23,30.12,10,10,5,13,8,,0.01,8,,6
2013-12-8,55,50,45,52,48,39,94,90,76,30.24,30.18,30.12,10,2,0,10,7,17,0.08,8,,107
2013-12-9,61,57,52,59,53,48,94,91,82,30.14,30.09,30.03,10,5,0,12,7,,0.04,8,,65
2013-12-10,55,48,41,54,41,28,94,78,46,30.29,30.16,30.00,10,7,0,21,12,28,0.18,5,,310
2013-12-11,57,43,28,34,28,21,80,55,33,30.41,30.37,30.33,10,10,2,12,5,,0.00,0,,22
2013-12-12,43,38,32,25,23,19,70,60,39,30.48,30.41,30.36,10,10,10,12,9,17,0.00,0,,357
2013-12-13,48,38,28,34,24,14,62,50,40,30.34,30.22,30.13,10,10,10,10,8,,0.00,0,,76
2013-12-14,61,54,46,57,46,34,94,83,62,30.12,29.97,29.84,10,9,3,14,10,18,0.45,6,,146
2013-12-15,,,,,,,,,,,,,,,,,,,,,,
2013-12-16,55,41,27,30,27,23,93,57,29,30.30,30.25,30.22,10,9,3,12,5,,0.00,0,,279
2013-12-17,61,49,36,34,29,27,75,49,29,30.29,30.23,30.17,10,10,9,14,7,17,0.00,0,,263
2013-12-18,55,46,36,34,25,21,75,51,26,30.38,30.30,30.23,10,10,8,12,5,,0.00,0,,350
2013-12-19,63,47,30,28,25,21,75,43,22,30.33,30.25,30.18,10,10,10,8,5,,0.00,0,,137
2013-12-20,64,52,39,55,44,28,82,69,50,30.22,30.16,30.10,10,10,9,12,6,18,0.00,4,,137
2013-12-21,72,65,57,64,60,54,94,84,78,30.09,29.99,29.94,10,10,2,16,12,24,0.05,7,,159
2013-12-22,69,62,55,64,59,54,94,86,78,30.07,29.98,29.92,10,9,4,15,12,23,2.03,8,Thunderstorm,156
2013-12-23,52,44,36,46,36,27,87,77,70,30.32,30.25,30.20,10,10,10,16,12,22,0.00,8,,330
2013-12-24,45,37,28,27,21,18,86,62,36,30.45,30.38,30.32,10,10,10,15,10,21,0.00,0,,349
2013-12-25,46,36,25,30,24,16,70,61,49,30.41,30.35,30.29,10,10,6,13,7,16,0.00,3,,62
2013-12-26,55,45,34,30,28,27,81,58,36,30.36,30.31,30.27,10,10,10,12,6,,0.00,1,,20
2013-12-27,55,46,36,34,29,25,70,57,41,30.42,30.36,30.31,10,10,10,12,8,,0.00,0,,45
2013-12-28,43,41,39,39,34,28,93,78,57,30.34,30.17,29.87,10,9,3,17,11,22,1.83,6,,70
2013-12-29,52,46,39,43,40,36,93,86,71,30.10,29.99,29.86,10,9,2,14,7,20,0.02,5,,306
2013-12-30,50,44,37,43,39,36,93,83,71,30.24,30.16,30.07,10,10,10,8,4,,0.00,1,,278
2013-12-31,46,41,36,41,31,27,87,69,50,30.41,30.33,30.23,10,10,10,10,7,16,0.00,3,,350